createdAt,value
2022-11-03T00:01:22.645Z,1.90
2022-11-03T00:07:15.517Z,1.48
2022-11-03T00:13:02.586Z,1.35
2022-11-03T00:18:49.448Z,1.00
2022-11-03T00:24:38.903Z,1.55
2022-11-03T00:30:25.776Z,1.17
2022-11-03T00:36:26.597Z,1.20
2022-11-03T00:42:13.397Z,1.35
2022-11-03T00:48:19.086Z,1.55
2022-11-03T00:54:07.588Z,0.88
2022-11-03T00:59:55.826Z,0.80
2022-11-03T01:06:02.732Z,0.90
2022-11-03T01:12:01.634Z,0.77
2022-11-03T01:17:48.231Z,0.95
2022-11-03T01:23:36.014Z,0.63
2022-11-03T01:29:22.606Z,0.50
2022-11-03T01:35:17.064Z,0.47
2022-11-03T01:41:07.256Z,0.73
2022-11-03T01:47:01.544Z,0.65
2022-11-03T01:52:59.766Z,0.32
2022-11-03T01:58:49.743Z,0.50
2022-11-03T02:04:36.709Z,0.45
2022-11-03T02:10:24.747Z,0.65
2022-11-03T02:16:12.987Z,0.50
2022-11-03T02:22:25.214Z,1.13
2022-11-03T02:28:23.479Z,0.90
2022-11-03T02:34:17.933Z,0.55
2022-11-03T02:40:13.957Z,0.43
2022-11-03T02:46:03.866Z,0.50
2022-11-03T02:52:00.449Z,0.35
2022-11-03T02:58:01.302Z,0.73
2022-11-03T03:03:53.996Z,0.65
2022-11-03T03:15:55.920Z,0.70
2022-11-03T03:27:33.926Z,0.93
2022-11-03T03:33:21.679Z,1.08
2022-11-03T03:39:12.520Z,1.95
2022-11-03T03:45:00.358Z,1.05
2022-11-03T03:50:49.694Z,1.63
2022-11-03T03:56:42.358Z,1.00
2022-11-03T04:08:17.791Z,1.38
2022-11-03T04:14:23.002Z,1.08
2022-11-03T04:20:31.785Z,1.23
2022-11-03T04:26:22.818Z,1.23
2022-11-03T04:32:17.689Z,0.90
2022-11-03T04:38:20.623Z,1.08
2022-11-03T04:44:15.122Z,1.38
2022-11-03T04:50:02.281Z,0.70
2022-11-03T04:55:51.674Z,0.65
2022-11-03T05:01:38.911Z,0.57
2022-11-03T05:07:36.024Z,0.60
2022-11-03T05:13:27.460Z,0.65
2022-11-03T05:19:20.853Z,0.63
2022-11-03T05:25:34.456Z,0.77
2022-11-03T05:31:27.171Z,0.80
2022-11-03T05:43:15.015Z,0.85
2022-11-03T05:49:03.038Z,1.40
2022-11-03T05:54:52.314Z,0.60
2022-11-03T06:00:47.130Z,0.40
2022-11-03T06:06:38.478Z,0.40
2022-11-03T06:12:26.235Z,0.30
2022-11-03T06:18:25.709Z,0.25
2022-11-03T06:24:15.160Z,0.38
2022-11-03T06:30:19.707Z,0.20
2022-11-03T06:36:16.461Z,0.65
2022-11-03T06:42:16.562Z,0.47
2022-11-03T06:48:08.575Z,0.60
2022-11-03T06:53:59.090Z,0.80
2022-11-03T06:59:57.089Z,0.85
2022-11-03T07:06:27.489Z,1.55
2022-11-03T07:12:18.693Z,0.95
2022-11-03T07:18:27.027Z,0.63
2022-11-03T07:24:19.072Z,0.82
2022-11-03T07:30:20.129Z,0.60
2022-11-03T07:36:15.914Z,0.70
2022-11-03T07:42:21.294Z,0.70
2022-11-03T07:48:33.796Z,1.17
2022-11-03T07:54:30.356Z,0.95
2022-11-03T08:00:22.167Z,0.73
2022-11-03T08:06:10.240Z,0.87
2022-11-03T08:11:58.543Z,0.95
2022-11-03T08:17:45.684Z,1.27
2022-11-03T08:23:33.104Z,1.10
2022-11-03T08:29:21.493Z,0.80
2022-11-03T08:35:08.439Z,0.60
2022-11-03T08:40:56.182Z,0.80
2022-11-03T08:46:45.099Z,0.98
2022-11-03T08:52:31.848Z,0.52
2022-11-03T08:58:18.708Z,0.50
2022-11-03T09:04:05.602Z,0.40
2022-11-03T09:10:28.353Z,0.70
2022-11-03T09:16:18.078Z,0.80
2022-11-03T09:22:05.655Z,0.95
2022-11-03T09:27:55.466Z,0.95
2022-11-03T09:33:42.363Z,1.08
2022-11-03T09:39:29.123Z,0.63
2022-11-03T09:45:15.947Z,0.65
2022-11-03T09:51:05.347Z,0.80
2022-11-03T09:56:52.177Z,1.60
2022-11-03T10:02:40.437Z,0.90
2022-11-03T10:08:33.579Z,0.88
2022-11-03T10:14:23.487Z,1.85
2022-11-03T10:20:13.212Z,0.73
2022-11-03T10:26:11.242Z,0.93
2022-11-03T10:32:01.531Z,1.00
2022-11-03T10:37:48.365Z,1.05
2022-11-03T10:43:44.252Z,0.68
2022-11-03T10:49:43.230Z,0.60
2022-11-03T10:55:31.993Z,0.95
2022-11-03T11:01:18.825Z,0.60
2022-11-03T11:07:19.256Z,0.70
2022-11-03T11:13:18.864Z,0.65
2022-11-03T11:19:05.637Z,0.80
2022-11-03T11:24:58.318Z,1.05
2022-11-03T11:37:03.789Z,0.80
2022-11-03T11:43:02.869Z,0.90
2022-11-03T11:49:04.894Z,1.30
2022-11-03T11:54:54.301Z,1.33
2022-11-03T12:01:03.245Z,1.30
2022-11-03T12:06:52.717Z,0.98
2022-11-03T12:12:39.442Z,0.98
2022-11-03T12:18:50.197Z,1.10
2022-11-03T12:24:57.843Z,0.70
2022-11-03T12:30:44.466Z,1.10
2022-11-03T12:36:31.492Z,1.15
2022-11-03T12:42:21.786Z,0.95
2022-11-03T12:48:08.802Z,0.70
2022-11-03T12:53:57.618Z,0.90
2022-11-03T12:59:44.398Z,0.55
2022-11-03T13:05:32.580Z,0.43
2022-11-03T13:11:44.487Z,0.57
2022-11-03T13:17:59.371Z,0.73
2022-11-03T13:23:45.271Z,0.70
2022-11-03T13:29:36.430Z,1.08
2022-11-03T13:35:23.907Z,1.08
2022-11-03T13:41:12.188Z,0.85
2022-11-03T13:46:59.304Z,0.95
2022-11-03T13:52:46.902Z,0.90
2022-11-03T14:04:54.509Z,1.08
2022-11-03T14:10:41.441Z,1.80
2022-11-03T14:16:28.914Z,1.20
2022-11-03T14:22:19.525Z,1.58
2022-11-03T14:28:06.537Z,1.05
2022-11-03T14:33:53.638Z,0.90
2022-11-03T14:39:42.581Z,1.10
2022-11-03T14:45:34.187Z,0.70
2022-11-03T14:51:37.265Z,0.80
2022-11-03T14:57:24.181Z,0.80
2022-11-03T15:03:13.288Z,0.90
2022-11-03T15:09:00.514Z,1.23
2022-11-03T15:14:52.329Z,1.10
2022-11-03T15:20:40.043Z,1.13
2022-11-03T15:26:29.021Z,0.90
2022-11-03T15:32:17.013Z,0.85
2022-11-03T15:38:06.364Z,0.80
2022-11-03T15:43:53.924Z,0.77
2022-11-03T15:49:40.677Z,1.20
2022-11-03T15:55:27.563Z,0.80
2022-11-03T16:01:14.364Z,1.23
2022-11-03T16:07:07.803Z,1.50
2022-11-03T16:12:55.510Z,1.17
2022-11-03T16:18:42.384Z,1.15
2022-11-03T16:24:34.860Z,1.08
2022-11-03T16:30:23.854Z,0.95
2022-11-03T16:36:10.577Z,0.70
2022-11-03T16:42:05.372Z,1.13
2022-11-03T16:47:57.909Z,0.90
2022-11-03T16:53:44.955Z,1.20
2022-11-03T16:59:31.990Z,1.65
2022-11-03T17:05:21.039Z,1.65
2022-11-03T17:11:07.866Z,1.70
2022-11-03T17:16:54.860Z,1.63
2022-11-03T17:22:41.684Z,2.22
2022-11-03T17:28:28.746Z,1.75
2022-11-03T17:54:57.281Z,1.52
2022-11-03T18:08:44.639Z,0.93
2022-11-03T18:15:08.512Z,1.70
2022-11-03T18:22:12.526Z,1.38
2022-11-03T18:29:20.834Z,1.92
2022-11-03T18:35:22.908Z,2.45
2022-11-03T18:41:55.433Z,1.75
2022-11-03T18:47:45.815Z,2.25
2022-11-03T18:53:34.277Z,3.63
2022-11-03T18:59:52.147Z,5.03
2022-11-03T19:12:39.805Z,5.28
2022-11-03T19:18:28.678Z,4.60
2022-11-03T19:24:15.692Z,5.10
2022-11-03T19:30:06.244Z,5.13
2022-11-03T19:35:53.389Z,5.35
2022-11-03T19:42:09.588Z,5.45
2022-11-03T19:48:23.697Z,5.97
2022-11-03T19:54:30.557Z,5.85
2022-11-03T20:00:36.646Z,7.35
2022-11-03T20:06:53.741Z,9.27
2022-11-03T20:13:20.563Z,9.18
2022-11-03T20:19:30.495Z,18.25
2022-11-03T20:25:50.752Z,16.48
2022-11-03T20:32:09.793Z,16.17
2022-11-03T20:38:09.272Z,9.77
2022-11-03T20:44:00.266Z,10.15
2022-11-03T20:50:11.562Z,5.28
2022-11-03T20:56:04.477Z,5.88
2022-11-03T21:02:53.815Z,7.32
2022-11-03T21:33:16.495Z,2.95
2022-11-03T21:39:07.318Z,2.95
2022-11-03T21:45:52.955Z,2.20
2022-11-03T21:58:50.396Z,2.65
2022-11-03T22:04:38.775Z,1.85
2022-11-03T22:11:07.377Z,2.30
2022-11-03T22:16:58.157Z,2.33
2022-11-03T22:23:14.877Z,1.85
2022-11-03T22:36:32.582Z,1.75
2022-11-03T22:42:39.495Z,1.60
2022-11-03T22:48:42.660Z,1.90
2022-11-03T22:54:35.665Z,1.80
2022-11-03T23:00:22.624Z,1.38
2022-11-03T23:06:26.272Z,1.75
2022-11-03T23:12:13.460Z,1.88
2022-11-03T23:18:22.977Z,1.67
2022-11-03T23:24:28.250Z,1.40
2022-11-03T23:30:17.175Z,1.60
2022-11-03T23:36:19.979Z,1.60
2022-11-03T23:42:07.288Z,2.33
2022-11-03T23:48:15.002Z,1.67
2022-11-03T23:54:03.647Z,1.90
2022-11-03T23:59:52.518Z,1.75
